Time;durP1;ratioP1;P1;durP2;ratioP2;P2;SDS_P1;SDS_P2;PMS_P1;PMS_P2;Temp;Humidity;BMP_temperature;BMP_pressure;BME280_temperature;BME280_humidity;BME280_pressure;Samples;Min_cycle;Max_cycle;Signal;HPM_P1;HPM_P2
2021/06/14 00:00:05;;;;;;;;;;;;;;;25.04;43.21;102029.88;2204524;39;114758;-55
2021/06/14 00:01:38;;;;;;;;;;;;;;;25.03;42.86;102026.19;2204347;39;113829;-53
2021/06/14 00:03:10;;;;;;;;;;;;;;;25.04;42.85;102016.56;2207722;39;113741;-53
2021/06/14 00:04:43;;;;;;;;;;;;;;;25.01;42.96;102020.03;2207300;39;113715;-53
2021/06/14 00:06:15;;;;;;;;;;;;;;;25.01;43.40;102017.19;2200660;39;114090;-54
2021/06/14 00:07:47;;;;;;;;;;;;;;;25.00;43.44;102012.69;2202361;39;116012;-54
2021/06/14 00:09:24;;;;;;;;;;;;;;;25.00;43.40;102007.03;2196849;39;114762;-54
2021/06/14 00:10:58;;;;;;;;;;;;;;;25.02;43.34;102001.06;2202119;39;114954;-54
2021/06/14 00:12:30;;;;;;;;;;;;;;;25.00;43.44;102001.38;2205612;39;113986;-54
2021/06/14 00:14:27;;;;;;;;;;;;;;;25.00;43.36;101994.88;2202861;39;114795;-54
2021/06/14 00:16:00;;;;;;;;;;;;;;;25.01;43.53;102005.06;2203522;39;115589;-54
2021/06/14 00:17:36;;;;;;;;;;;;;;;24.99;43.48;102001.69;2196167;39;113971;-53
2021/06/14 00:19:14;;;;;;;;;;;;;;;25.00;43.43;102001.38;2202406;39;114455;-53
2021/06/14 00:20:51;;;;;;;;;;;;;;;25.02;43.27;102007.56;2202303;39;113846;-54
2021/06/14 00:22:26;;;;;;;;;;;;;;;25.01;43.35;102005.88;2204013;39;114593;-54
2021/06/14 00:23:59;;;;;;;;;;;;;;;25.01;43.72;102008.72;2205637;39;114545;-54
2021/06/14 00:25:33;;;;;;;;;;;;;;;25.02;43.60;102009.56;2207547;39;113984;-57
2021/06/14 00:27:08;;;;;;;;;;;;;;;25.01;43.41;102000.25;2204877;39;114546;-54
2021/06/14 00:28:41;;;;;;;;;;;;;;;25.01;43.51;102003.06;2210203;39;113987;-54
2021/06/14 00:30:13;;;;;;;;;;;;;;;25.01;43.46;102003.06;2203654;39;115135;-54
2021/06/14 00:31:45;;;;;;;;;;;;;;;25.02;43.94;102010.41;2209476;39;115433;-54
2021/06/14 00:33:18;;;;;;;;;;;;;;;25.00;43.74;102009.88;2204274;39;115638;-54
2021/06/14 00:34:50;;;;;;;;;;;;;;;25.01;43.46;102005.06;2207112;39;115506;-53
2021/06/14 00:36:22;;;;;;;;;;;;;;;25.02;43.68;102001.06;2207087;39;115764;-54
2021/06/14 00:37:53;;;;;;;;;;;;;;;24.99;43.78;101999.69;2203379;39;115922;-55
2021/06/14 00:39:26;;;;;;;;;;;;;;;25.01;43.93;102002.22;2207444;39;114523;-54
2021/06/14 00:40:58;;;;;;;;;;;;;;;25.01;43.93;102007.88;2205224;39;115949;-54
2021/06/14 00:42:30;;;;;;;;;;;;;;;25.03;43.81;102006.41;2206672;39;116058;-54
2021/06/14 00:44:02;;;;;;;;;;;;;;;25.04;43.49;102007.25;2203755;39;115438;-53
2021/06/14 00:45:39;;;;;;;;;;;;;;;25.04;43.38;102013.75;2203075;39;114873;-53
2021/06/14 00:47:14;;;;;;;;;;;;;;;25.05;43.59;102018.25;2201229;39;115017;-54
2021/06/14 00:48:48;;;;;;;;;;;;;;;25.04;44.19;102004.41;2199355;39;115695;-54
2021/06/14 00:50:31;;;;;;;;;;;;;;;25.03;43.87;102006.41;2208824;39;114488;-54
2021/06/14 00:52:04;;;;;;;;;;;;;;;25.04;43.70;102001.59;2204580;39;114151;-54
2021/06/14 00:53:38;;;;;;;;;;;;;;;25.03;43.83;102005.59;2204790;39;113648;-54
2021/06/14 00:55:12;;;;;;;;;;;;;;;25.02;43.71;102007.56;2205521;39;113584;-54
2021/06/14 00:56:44;;;;;;;;;;;;;;;25.03;43.56;102009.22;2193971;39;113807;-54
2021/06/14 00:58:16;;;;;;;;;;;;;;;25.03;44.25;102002.75;2202525;39;113750;-53
2021/06/14 00:59:48;;;;;;;;;;;;;;;25.02;43.70;101999.09;2197075;39;114604;-55
2021/06/14 01:01:20;;;;;;;;;;;;;;;25.03;43.68;101997.09;2202014;39;113794;-54
2021/06/14 01:02:52;;;;;;;;;;;;;;;25.03;43.96;101995.09;2203859;39;113796;-54
2021/06/14 01:04:24;;;;;;;;;;;;;;;25.04;44.08;101995.94;2207472;39;113913;-54
2021/06/14 01:05:58;;;;;;;;;;;;;;;25.03;44.10;101995.09;2205225;39;114311;-54
2021/06/14 01:07:30;;;;;;;;;;;;;;;25.04;43.82;102001.59;2204185;39;113807;-53
2021/06/14 01:09:02;;;;;;;;;;;;;;;25.04;44.05;102001.59;2205475;39;113915;-53
2021/06/14 01:10:36;;;;;;;;;;;;;;;25.02;44.31;102001.91;2205990;39;114143;-53
2021/06/14 01:12:12;;;;;;;;;;;;;;;25.02;43.84;102010.41;2202125;39;113693;-53
2021/06/14 01:13:45;;;;;;;;;;;;;;;25.06;43.67;102004.94;2205955;39;113673;-53
2021/06/14 01:15:19;;;;;;;;;;;;;;;25.03;44.10;102016.91;2204461;39;113928;-54
2021/06/14 01:16:54;;;;;;;;;;;;;;;25.04;43.76;102015.72;2200136;39;115270;-54
2021/06/14 01:18:29;;;;;;;;;;;;;;;25.04;43.69;102015.72;2191541;39;113832;-57
2021/06/14 01:20:01;;;;;;;;;;;;;;;25.03;43.89;102014.88;2196951;39;114874;-54
2021/06/14 01:21:37;;;;;;;;;;;;;;;25.02;44.20;102021.72;2203654;39;114259;-54
2021/06/14 01:23:21;;;;;;;;;;;;;;;25.01;44.48;102005.88;2204419;39;114883;-54
2021/06/14 01:24:53;;;;;;;;;;;;;;;25.03;44.20;102014.06;2198576;39;114245;-54
2021/06/14 01:26:28;;;;;;;;;;;;;;;25.03;44.25;102009.22;2194804;39;113876;-54
2021/06/14 01:28:01;;;;;;;;;;;;;;;25.02;44.60;102009.56;2197356;39;114763;-54
2021/06/14 01:29:35;;;;;;;;;;;;;;;25.06;44.52;102008.63;2204037;39;114457;-55
2021/06/14 01:31:08;;;;;;;;;;;;;;;25.03;44.40;102008.41;2201224;39;114756;-54
2021/06/14 01:32:41;;;;;;;;;;;;;;;25.02;44.26;102004.75;2195835;39;113789;-54
2021/06/14 01:34:13;;;;;;;;;;;;;;;25.02;44.67;102004.75;2196643;39;115584;-54
2021/06/14 01:35:45;;;;;;;;;;;;;;;25.02;44.41;102006.72;2206330;39;115571;-54
2021/06/14 01:37:18;;;;;;;;;;;;;;;25.02;44.63;101995.41;2205113;39;115520;-54
2021/06/14 01:38:50;;;;;;;;;;;;;;;25.01;44.67;102002.22;2200726;39;115586;-55
2021/06/14 01:40:23;;;;;;;;;;;;;;;25.01;45.17;102013.53;2202261;39;114781;-54
2021/06/14 01:41:55;;;;;;;;;;;;;;;25.01;44.94;102008.72;2197882;39;114901;-56
2021/06/14 01:43:29;;;;;;;;;;;;;;;25.05;44.86;102011.75;2205234;39;115583;-54
2021/06/14 01:45:02;;;;;;;;;;;;;;;25.03;44.98;102009.22;2200140;39;114975;-54
2021/06/14 01:46:36;;;;;;;;;;;;;;;25.06;45.03;102014.28;2196094;39;115453;-54
2021/06/14 01:48:09;;;;;;;;;;;;;;;25.03;45.15;102005.59;2194102;39;115092;-55
2021/06/14 01:49:42;;;;;;;;;;;;;;;25.02;44.98;102013.22;2205138;39;115677;-54
2021/06/14 01:51:15;;;;;;;;;;;;;;;25.01;44.73;102003.06;2204110;39;115820;-54
2021/06/14 01:52:47;;;;;;;;;;;;;;;25.02;44.75;101993.44;2204570;39;114903;-54
2021/06/14 01:54:20;;;;;;;;;;;;;;;25.00;44.77;101990.06;2204841;39;115521;-54
2021/06/14 01:55:52;;;;;;;;;;;;;;;25.04;44.61;101981.78;2198370;39;116114;-54
2021/06/14 01:57:24;;;;;;;;;;;;;;;25.03;44.38;101982.97;2198354;39;115160;-54
2021/06/14 01:58:59;;;;;;;;;;;;;;;25.02;44.71;101984.09;2203048;39;113615;-54
2021/06/14 02:00:31;;;;;;;;;;;;;;;24.99;44.70;101982.72;2204539;39;114075;-54
2021/06/14 02:02:05;;;;;;;;;;;;;;;25.00;44.91;101981.59;2202827;39;114666;-53
2021/06/14 02:03:43;;;;;;;;;;;;;;;25.00;44.60;101987.25;2199247;39;113764;-54
2021/06/14 02:05:30;;;;;;;;;;;;;;;24.99;45.10;101988.38;2203765;39;114690;-54
2021/06/14 02:07:04;;;;;;;;;;;;;;;25.00;44.98;101983.56;2205220;39;114675;-54
2021/06/14 02:08:36;;;;;;;;;;;;;;;24.99;44.65;101981.88;2204964;39;113711;-54
2021/06/14 02:10:09;;;;;;;;;;;;;;;24.98;44.79;101980.25;2197569;39;114095;-54
2021/06/14 02:11:43;;;;;;;;;;;;;;;24.99;44.68;101982.72;2202642;39;114228;-54
2021/06/14 02:13:15;;;;;;;;;;;;;;;25.00;44.98;101972.25;2203779;39;113699;-54
2021/06/14 02:14:47;;;;;;;;;;;;;;;24.98;44.50;101977.41;2203919;39;113762;-54
2021/06/14 02:16:19;;;;;;;;;;;;;;;24.97;44.85;101967.25;2203408;39;113733;-53
2021/06/14 02:17:54;;;;;;;;;;;;;;;24.97;44.76;101964.41;2203625;39;113783;-54
2021/06/14 02:19:26;;;;;;;;;;;;;;;24.98;44.64;101963.28;2211730;39;113718;-54
2021/06/14 02:20:58;;;;;;;;;;;;;;;25.07;44.42;101947.25;2205840;39;114665;-54
2021/06/14 02:22:30;;;;;;;;;;;;;;;25.04;44.73;101951.53;2200439;39;114753;-54
2021/06/14 02:24:02;;;;;;;;;;;;;;;24.99;44.53;101945.97;2201711;39;114759;-54
2021/06/14 02:25:34;;;;;;;;;;;;;;;24.98;44.77;101946.31;2204500;39;114987;-54
2021/06/14 02:27:06;;;;;;;;;;;;;;;24.99;44.41;101956.44;2193923;39;115123;-53
2021/06/14 02:28:39;;;;;;;;;;;;;;;24.97;44.63;101948.28;2197970;39;114120;-53
2021/06/14 02:30:14;;;;;;;;;;;;;;;24.96;44.62;101954.25;2199202;39;114790;-55
2021/06/14 02:31:45;;;;;;;;;;;;;;;24.98;44.56;101960.44;2199501;39;113938;-54
2021/06/14 02:33:17;;;;;;;;;;;;;;;25.06;44.92;101957.72;2196341;39;114974;-55
2021/06/14 02:34:51;;;;;;;;;;;;;;;24.99;44.56;101960.09;2200735;39;115316;-54
2021/06/14 02:36:23;;;;;;;;;;;;;;;24.97;44.77;101968.09;2195912;39;113929;-55
2021/06/14 02:37:58;;;;;;;;;;;;;;;24.95;44.94;101963.88;2200593;39;115058;-54
2021/06/14 02:39:32;;;;;;;;;;;;;;;24.97;44.52;101964.41;2202996;39;114874;-54
2021/06/14 02:41:04;;;;;;;;;;;;;;;24.96;44.30;101966.41;2198059;39;115003;-54
2021/06/14 02:42:37;;;;;;;;;;;;;;;24.96;44.69;101966.41;2200939;39;114764;-54
2021/06/14 02:44:09;;;;;;;;;;;;;;;24.94;44.88;101965.88;2193306;39;114604;-54
2021/06/14 02:45:42;;;;;;;;;;;;;;;24.94;44.80;101973.53;2203092;39;115478;-54
2021/06/14 02:47:17;;;;;;;;;;;;;;;24.93;44.46;101969.88;2201950;39;115515;-55
2021/06/14 02:48:49;;;;;;;;;;;;;;;24.92;44.66;101971.00;2194829;39;115605;-53
2021/06/14 02:50:22;;;;;;;;;;;;;;;24.93;44.64;101972.69;2197593;39;115873;-54
2021/06/14 02:51:56;;;;;;;;;;;;;;;24.94;44.43;101967.88;2199269;39;114581;-54
2021/06/14 02:53:29;;;;;;;;;;;;;;;24.93;44.76;101969.03;2204987;39;115658;-54
2021/06/14 02:55:03;;;;;;;;;;;;;;;24.92;44.69;101962.53;2204745;39;114485;-54
2021/06/14 02:56:36;;;;;;;;;;;;;;;24.90;44.92;101967.66;2205156;39;116194;-54
2021/06/14 02:58:08;;;;;;;;;;;;;;;24.91;44.95;101966.50;2191951;39;115121;-53
2021/06/14 02:59:40;;;;;;;;;;;;;;;24.91;44.80;101968.50;2201280;39;115495;-54
2021/06/14 03:01:12;;;;;;;;;;;;;;;24.89;44.62;101973.63;2203904;39;114445;-54
2021/06/14 03:02:45;;;;;;;;;;;;;;;24.90;44.59;101966.81;2204323;39;115548;-54
2021/06/14 03:04:17;;;;;;;;;;;;;;;24.91;44.88;101968.50;2207108;39;115584;-54
2021/06/14 03:05:49;;;;;;;;;;;;;;;24.89;44.53;101963.16;2202068;39;113910;-54
2021/06/14 03:07:21;;;;;;;;;;;;;;;24.91;44.82;101962.84;2198130;39;114342;-53
2021/06/14 03:08:54;;;;;;;;;;;;;;;24.90;45.00;101967.66;2203037;39;113872;-54
2021/06/14 03:10:28;;;;;;;;;;;;;;;24.91;45.38;101957.19;2205576;39;114400;-54
2021/06/14 03:12:00;;;;;;;;;;;;;;;24.91;45.34;101960.00;2205244;39;113864;-54
2021/06/14 03:13:33;;;;;;;;;;;;;;;24.96;45.33;101965.56;2205976;39;113975;-54
2021/06/14 03:15:06;;;;;;;;;;;;;;;24.90;44.80;101961.16;2201637;39;114402;-54
2021/06/14 03:16:38;;;;;;;;;;;;;;;24.93;45.25;101957.72;2205219;39;113941;-54
2021/06/14 03:18:11;;;;;;;;;;;;;;;24.90;44.74;101956.34;2197996;39;114580;-54
2021/06/14 03:19:46;;;;;;;;;;;;;;;24.88;45.16;101944.53;2199772;39;116034;-54
2021/06/14 03:21:19;;;;;;;;;;;;;;;24.95;45.13;101950.59;2195856;39;113736;-54
2021/06/14 03:22:51;;;;;;;;;;;;;;;24.90;44.90;101947.00;2205925;39;113803;-53
2021/06/14 03:24:23;;;;;;;;;;;;;;;24.90;44.75;101944.19;2209007;39;113804;-54
2021/06/14 03:25:55;;;;;;;;;;;;;;;24.88;44.99;101947.34;2202660;39;113965;-54
2021/06/14 03:27:27;;;;;;;;;;;;;;;24.87;45.02;101942.84;2201804;39;114213;-54
2021/06/14 03:29:00;;;;;;;;;;;;;;;24.87;44.97;101945.66;2203190;39;114785;-54
2021/06/14 03:30:33;;;;;;;;;;;;;;;24.83;45.73;101941.75;2201456;39;114901;-53
2021/06/14 03:32:05;;;;;;;;;;;;;;;24.85;44.66;101939.44;2204441;39;114898;-53
2021/06/14 03:33:38;;;;;;;;;;;;;;;24.79;44.48;101935.06;2201723;39;113998;-54
2021/06/14 03:35:13;;;;;;;;;;;;;;;24.78;44.25;101934.22;2200838;39;114727;-54
2021/06/14 03:36:45;;;;;;;;;;;;;;;24.77;44.38;101934.53;2197396;39;114713;-53
2021/06/14 03:38:17;;;;;;;;;;;;;;;24.81;45.04;101936.41;2206646;39;114951;-53
2021/06/14 03:39:49;;;;;;;;;;;;;;;24.79;44.88;101932.25;2202525;39;114820;-53
2021/06/14 03:41:21;;;;;;;;;;;;;;;24.78;44.67;101936.22;2203222;39;114218;-53
2021/06/14 03:42:58;;;;;;;;;;;;;;;24.78;45.01;101934.22;2205631;39;115408;-54
2021/06/14 03:44:30;;;;;;;;;;;;;;;24.80;44.98;101943.22;2203911;39;115180;-54
2021/06/14 03:46:02;;;;;;;;;;;;;;;24.78;44.90;101933.38;2206617;39;114041;-54
2021/06/14 03:47:34;;;;;;;;;;;;;;;24.78;44.98;101931.41;2208668;39;115029;-54
2021/06/14 03:49:06;;;;;;;;;;;;;;;24.79;45.41;101929.41;2196972;39;115578;-54
2021/06/14 03:50:38;;;;;;;;;;;;;;;24.78;44.75;101927.72;2200420;39;114572;-55
2021/06/14 03:52:10;;;;;;;;;;;;;;;24.76;45.05;101913.06;2206451;39;115710;-54
2021/06/14 03:53:56;;;;;;;;;;;;;;;24.76;44.85;101910.22;2206162;39;116364;-56
2021/06/14 03:55:28;;;;;;;;;;;;;;;24.75;45.16;101909.41;2205316;39;115912;-54
2021/06/14 03:57:00;;;;;;;;;;;;;;;24.76;44.55;101904.56;2200757;39;115494;-53
2021/06/14 03:58:32;;;;;;;;;;;;;;;24.76;44.71;101904.56;2193911;39;115511;-54
2021/06/14 04:00:05;;;;;;;;;;;;;;;24.75;44.76;101900.09;2198842;39;115500;-54
2021/06/14 04:01:37;;;;;;;;;;;;;;;24.74;44.86;101904.06;2204910;39;116104;-54
2021/06/14 04:03:09;;;;;;;;;;;;;;;24.73;44.83;101913.69;2203578;39;116276;-54
2021/06/14 04:06:13;;;;;;;;;;;;;;;24.75;45.12;101908.56;2205635;39;115878;-55
2021/06/14 04:07:45;;;;;;;;;;;;;;;24.80;45.14;101897.16;2208903;39;115879;-55
2021/06/14 04:09:17;;;;;;;;;;;;;;;24.77;45.00;101894.94;2202319;39;115561;-55
2021/06/14 04:10:49;;;;;;;;;;;;;;;24.73;44.48;101893.91;2202487;39;113999;-54
2021/06/14 04:12:20;;;;;;;;;;;;;;;24.71;45.07;101894.22;2197013;39;113773;-54
2021/06/14 04:13:52;;;;;;;;;;;;;;;24.73;44.78;101896.72;2203165;39;114159;-55
2021/06/14 04:15:24;;;;;;;;;;;;;;;24.73;45.00;101893.91;2204361;39;113881;-53
2021/06/14 04:16:56;;;;;;;;;;;;;;;24.73;44.93;101894.75;2206130;39;115001;-54
2021/06/14 04:18:28;;;;;;;;;;;;;;;24.71;44.70;101894.22;2200680;39;114142;-54
2021/06/14 04:20:00;;;;;;;;;;;;;;;24.73;44.86;101883.44;2206805;39;113946;-54
2021/06/14 04:21:32;;;;;;;;;;;;;;;24.72;44.92;101887.41;2204772;39;113855;-54
2021/06/14 04:23:04;;;;;;;;;;;;;;;24.70;45.16;101892.56;2205427;39;114587;-54
2021/06/14 04:24:35;;;;;;;;;;;;;;;24.72;44.58;101898.72;2202986;39;113880;-54
2021/06/14 04:26:08;;;;;;;;;;;;;;;24.72;44.74;101892.22;2199835;39;114311;-54
2021/06/14 04:27:40;;;;;;;;;;;;;;;24.70;44.74;101895.38;2200054;39;113737;-54
2021/06/14 04:29:12;;;;;;;;;;;;;;;24.68;44.75;101900.50;2204913;39;114104;-54
2021/06/14 04:30:44;;;;;;;;;;;;;;;24.69;45.14;101896.53;2197666;39;114173;-54
2021/06/14 04:32:16;;;;;;;;;;;;;;;24.70;44.56;101895.38;2198523;39;114434;-54
2021/06/14 04:33:48;;;;;;;;;;;;;;;24.70;44.58;101891.72;2196032;39;114601;-54
2021/06/14 04:35:19;;;;;;;;;;;;;;;24.70;44.78;101880.41;2203914;39;114272;-53
2021/06/14 04:36:51;;;;;;;;;;;;;;;24.66;44.74;101894.34;2198017;39;113852;-54
2021/06/14 04:38:23;;;;;;;;;;;;;;;24.72;44.93;101892.22;2201328;39;115161;-57
2021/06/14 04:39:55;;;;;;;;;;;;;;;24.68;44.73;101888.34;2207221;39;115090;-54
2021/06/14 04:41:27;;;;;;;;;;;;;;;24.67;44.68;101895.16;2200768;39;114802;-53
2021/06/14 04:42:58;;;;;;;;;;;;;;;24.65;44.70;101892.66;2196774;39;114684;-54
2021/06/14 04:44:32;;;;;;;;;;;;;;;24.66;44.83;101890.69;2202415;39;114563;-53
2021/06/14 04:46:04;;;;;;;;;;;;;;;24.69;44.33;101892.88;2204629;39;115236;-54
2021/06/14 04:47:36;;;;;;;;;;;;;;;24.67;44.90;101889.50;2199232;39;114906;-59
2021/06/14 04:49:07;;;;;;;;;;;;;;;24.67;44.48;101886.69;2195956;39;113949;-54
2021/06/14 04:50:39;;;;;;;;;;;;;;;24.66;44.82;101885.88;2191168;39;113804;-54
2021/06/14 04:52:11;;;;;;;;;;;;;;;24.65;44.70;101886.16;2201087;39;114857;-54
2021/06/14 04:53:43;;;;;;;;;;;;;;;24.65;44.85;101883.34;2208342;39;115324;-54
2021/06/14 04:55:15;;;;;;;;;;;;;;;24.65;44.84;101883.34;2205221;39;115466;-54
2021/06/14 04:56:47;;;;;;;;;;;;;;;24.64;44.93;101874.03;2204660;39;115518;-55
2021/06/14 04:58:19;;;;;;;;;;;;;;;24.65;44.86;101874.88;2201721;39;114648;-54
2021/06/14 04:59:51;;;;;;;;;;;;;;;24.62;44.69;101876.31;2203778;39;115679;-54
2021/06/14 05:01:23;;;;;;;;;;;;;;;24.63;44.63;101865.84;2203637;39;115783;-54
2021/06/14 05:02:55;;;;;;;;;;;;;;;24.65;44.81;101860.72;2199452;39;115608;-54
2021/06/14 05:04:27;;;;;;;;;;;;;;;24.64;45.00;101856.22;2203976;39;114773;-54
2021/06/14 05:05:59;;;;;;;;;;;;;;;24.64;44.72;101865.53;2201880;39;115639;-54
2021/06/14 05:07:30;;;;;;;;;;;;;;;24.63;44.90;101868.69;2205141;39;115464;-54
2021/06/14 05:09:02;;;;;;;;;;;;;;;24.64;44.89;101873.19;2200546;39;115506;-54
2021/06/14 05:10:34;;;;;;;;;;;;;;;24.64;44.70;101873.19;2204593;39;115502;-56
2021/06/14 05:12:06;;;;;;;;;;;;;;;24.63;44.87;101869.50;2204846;39;114819;-54
2021/06/14 05:13:38;;;;;;;;;;;;;;;24.64;45.28;101868.38;2197734;39;114509;-54
2021/06/14 05:15:10;;;;;;;;;;;;;;;24.64;44.91;101871.19;2206257;39;115883;-54
2021/06/14 05:16:43;;;;;;;;;;;;;;;24.63;44.97;101868.69;2202227;39;113976;-54
2021/06/14 05:18:15;;;;;;;;;;;;;;;24.63;45.14;101874.31;2203326;39;114850;-54
2021/06/14 05:19:47;;;;;;;;;;;;;;;24.62;44.94;101876.31;2198744;39;113958;-54
2021/06/14 05:21:18;;;;;;;;;;;;;;;24.62;45.07;101876.31;2205704;39;113981;-54
2021/06/14 05:22:50;;;;;;;;;;;;;;;24.63;45.15;101874.31;2197488;39;113869;-53
2021/06/14 05:24:22;;;;;;;;;;;;;;;24.62;44.83;101873.47;2200502;39;113814;-54
2021/06/14 05:25:54;;;;;;;;;;;;;;;24.63;45.26;101885.63;2188684;39;113996;-53
2021/06/14 05:27:26;;;;;;;;;;;;;;;24.63;45.08;101880.81;2200040;39;114050;-55
2021/06/14 05:28:57;;;;;;;;;;;;;;;24.63;45.08;101889.31;2201070;39;113587;-61
2021/06/14 05:30:31;;;;;;;;;;;;;;;24.62;45.26;101896.09;2200577;39;113643;-54
2021/06/14 05:32:03;;;;;;;;;;;;;;;24.61;45.15;101885.97;2200239;39;113648;-54
2021/06/14 05:33:35;;;;;;;;;;;;;;;24.64;44.95;101893.81;2197466;39;113900;-55
2021/06/14 05:35:08;;;;;;;;;;;;;;;24.61;45.29;101885.97;2200152;39;114115;-54
2021/06/14 05:36:40;;;;;;;;;;;;;;;24.61;45.29;101885.13;2205597;39;113851;-54
2021/06/14 05:38:11;;;;;;;;;;;;;;;24.58;45.01;101899.84;2203453;39;113983;-54
2021/06/14 05:39:43;;;;;;;;;;;;;;;24.63;45.11;101896.94;2205744;39;114275;-54
2021/06/14 05:41:15;;;;;;;;;;;;;;;24.61;44.94;101887.94;2205215;39;114995;-53
2021/06/14 05:42:48;;;;;;;;;;;;;;;24.59;44.91;101895.88;2206934;39;114137;-54
2021/06/14 05:44:20;;;;;;;;;;;;;;;24.62;45.26;101893.25;2199220;39;113886;-54
2021/06/14 05:45:51;;;;;;;;;;;;;;;24.59;45.00;101898.72;2197229;39;115035;-54
2021/06/14 05:47:23;;;;;;;;;;;;;;;24.60;44.81;101909.72;2187318;39;113987;-54
2021/06/14 05:48:55;;;;;;;;;;;;;;;24.60;45.07;101911.69;2197229;39;113625;-54
2021/06/14 05:50:27;;;;;;;;;;;;;;;24.59;45.16;101910.84;2193095;39;114755;-54
2021/06/14 05:52:00;;;;;;;;;;;;;;;24.61;45.28;101917.06;2201258;39;114329;-54
2021/06/14 05:53:32;;;;;;;;;;;;;;;24.61;45.58;101919.88;2198851;39;113851;-53
2021/06/14 05:55:05;;;;;;;;;;;;;;;24.60;45.37;101923.84;2194902;39;114742;-55
2021/06/14 05:56:36;;;;;;;;;;;;;;;24.62;45.09;101929.19;2201389;39;113823;-53
2021/06/14 05:58:08;;;;;;;;;;;;;;;24.65;45.46;101934.22;2204049;39;113816;-54
2021/06/14 05:59:40;;;;;;;;;;;;;;;24.67;45.21;101934.72;2189077;39;115876;-54
2021/06/14 06:01:12;;;;;;;;;;;;;;;24.61;44.81;101931.19;2194248;39;115649;-53
2021/06/14 06:02:44;;;;;;;;;;;;;;;24.60;45.01;101931.47;2197908;39;116015;-53
2021/06/14 06:04:17;;;;;;;;;;;;;;;24.62;44.99;101926.38;2200555;39;114621;-53
2021/06/14 06:05:49;;;;;;;;;;;;;;;24.60;45.32;101925.84;2200833;39;114797;-53
2021/06/14 06:07:20;;;;;;;;;;;;;;;24.66;45.40;101933.06;2195689;39;116205;-53
2021/06/14 06:08:52;;;;;;;;;;;;;;;24.66;45.54;101931.09;2192891;39;116390;-54
2021/06/14 06:10:24;;;;;;;;;;;;;;;24.64;45.64;101930.53;2197965;39;116255;-54
2021/06/14 06:11:56;;;;;;;;;;;;;;;24.62;45.51;101929.19;2203097;39;115502;-54
2021/06/14 06:13:28;;;;;;;;;;;;;;;24.70;45.59;101932.13;2198266;39;115527;-54
2021/06/14 06:15:01;;;;;;;;;;;;;;;24.65;45.48;101929.41;2197513;39;115049;-54
2021/06/14 06:16:35;;;;;;;;;;;;;;;24.64;45.26;101936.19;2192922;39;115681;-54
2021/06/14 06:18:07;;;;;;;;;;;;;;;24.65;45.13;101937.88;2197106;39;115158;-54
2021/06/14 06:19:38;;;;;;;;;;;;;;;24.67;46.05;101931.91;2193138;39;115517;-54
2021/06/14 06:21:10;;;;;;;;;;;;;;;24.67;45.60;101935.56;2201772;39;115223;-55
2021/06/14 06:22:42;;;;;;;;;;;;;;;24.71;45.54;101930.97;2194732;39;113757;-56
2021/06/14 06:24:14;;;;;;;;;;;;;;;24.78;45.27;101937.06;2193590;39;113817;-53
2021/06/14 06:25:46;;;;;;;;;;;;;;;24.72;45.45;101928.97;2198124;39;113780;-54
2021/06/14 06:27:18;;;;;;;;;;;;;;;24.68;45.36;101936.41;2200042;39;113750;-53
2021/06/14 06:28:50;;;;;;;;;;;;;;;24.69;45.72;101938.09;2204046;39;114292;-54
2021/06/14 06:30:23;;;;;;;;;;;;;;;24.71;45.76;101935.81;2196634;39;113786;-54
2021/06/14 06:31:55;;;;;;;;;;;;;;;24.71;45.64;101935.81;2200265;39;113827;-54
2021/06/14 06:33:27;;;;;;;;;;;;;;;24.69;45.82;101932.44;2201550;39;113858;-54
2021/06/14 06:34:59;;;;;;;;;;;;;;;24.65;45.66;101934.22;2203916;39;113800;-53
2021/06/14 06:36:31;;;;;;;;;;;;;;;24.66;45.81;101928.25;2203007;39;114467;-54
2021/06/14 06:38:03;;;;;;;;;;;;;;;24.66;45.91;101933.91;2200235;39;114657;-54
2021/06/14 06:39:35;;;;;;;;;;;;;;;24.68;46.10;101927.94;2205210;39;113622;-55
2021/06/14 06:41:07;;;;;;;;;;;;;;;24.69;46.06;101929.59;2202072;39;114032;-53
2021/06/14 06:42:40;;;;;;;;;;;;;;;24.73;45.61;101927.81;2198812;39;113701;-53
2021/06/14 06:44:12;;;;;;;;;;;;;;;24.66;45.65;101930.25;2200813;39;113800;-53
2021/06/14 06:45:44;;;;;;;;;;;;;;;24.78;45.30;101922.06;2193681;39;113919;-54
2021/06/14 06:47:22;;;;;;;;;;;;;;;24.72;45.51;101920.50;2195944;39;115375;-55
2021/06/14 06:48:53;;;;;;;;;;;;;;;24.72;45.37;101924.16;2197874;39;114875;-54
2021/06/14 06:50:25;;;;;;;;;;;;;;;24.54;43.34;101919.44;2199353;39;114702;-54
2021/06/14 06:51:57;;;;;;;;;;;;;;;24.44;43.39;101924.47;2203026;39;113837;-54
2021/06/14 06:53:29;;;;;;;;;;;;;;;24.29;43.07;101931.22;2203994;39;114730;-54
2021/06/14 06:55:02;;;;;;;;;;;;;;;24.22;42.80;101925.97;2189276;39;115123;-54
2021/06/14 06:56:34;;;;;;;;;;;;;;;24.11;42.21;101916.00;2192031;39;114880;-53
2021/06/14 06:58:05;;;;;;;;;;;;;;;24.10;42.50;101917.13;2202426;39;114062;-54
2021/06/14 06:59:37;;;;;;;;;;;;;;;24.08;42.69;101927.88;2197304;39;114766;-54
2021/06/14 07:01:09;;;;;;;;;;;;;;;24.03;42.81;101918.69;2202675;39;114929;-54
2021/06/14 07:02:42;;;;;;;;;;;;;;;23.94;42.89;101922.19;2204995;39;113813;-54
2021/06/14 07:04:33;;;;;;;;;;;;;;;23.85;42.17;101917.53;2206324;39;114245;-54
2021/06/14 07:06:05;;;;;;;;;;;;;;;23.84;42.20;101913.06;2197019;39;115631;-54
2021/06/14 07:07:37;;;;;;;;;;;;;;;24.01;42.04;101906.84;2202932;39;115521;-54
2021/06/14 07:09:09;;;;;;;;;;;;;;;24.02;42.17;101908.53;2202176;39;115085;-54
2021/06/14 07:10:43;;;;;;;;;;;;;;;24.02;42.55;101895.25;2204612;39;116008;-54
2021/06/14 07:12:15;;;;;;;;;;;;;;;24.02;42.72;101895.25;2198479;39;116215;-54
2021/06/14 07:13:47;;;;;;;;;;;;;;;24.09;42.33;101894.84;2197983;39;115993;-54
2021/06/14 07:15:19;;;;;;;;;;;;;;;24.09;42.80;101898.50;2203462;39;115643;-54
2021/06/14 07:16:51;;;;;;;;;;;;;;;24.05;42.40;101897.44;2204653;39;114573;-54
2021/06/14 07:18:23;;;;;;;;;;;;;;;24.11;42.30;101904.69;2205064;39;115600;-53
2021/06/14 07:19:55;;;;;;;;;;;;;;;24.13;42.53;101904.38;2196789;39;114548;-53
2021/06/14 07:21:27;;;;;;;;;;;;;;;24.12;42.86;101894.25;2202130;39;115499;-54
2021/06/14 07:22:59;;;;;;;;;;;;;;;24.12;42.58;101897.06;2198549;39;115835;-54
2021/06/14 07:24:31;;;;;;;;;;;;;;;24.12;43.01;101895.06;2196928;39;115355;-54
2021/06/14 07:26:02;;;;;;;;;;;;;;;24.15;42.80;101899.25;2203236;39;114595;-54
2021/06/14 07:27:34;;;;;;;;;;;;;;;24.13;42.46;101885.44;2203867;39;113699;-54
2021/06/14 07:29:07;;;;;;;;;;;;;;;24.10;42.59;101888.88;2203957;39;113855;-55
2021/06/14 07:30:39;;;;;;;;;;;;;;;24.25;42.06;101887.81;2198786;39;114539;-54
2021/06/14 07:32:11;;;;;;;;;;;;;;;24.16;42.50;101878.38;2201134;39;114414;-54
2021/06/14 07:33:43;;;;;;;;;;;;;;;24.04;43.01;101881.66;2197356;39;113778;-54
2021/06/14 07:35:15;;;;;;;;;;;;;;;24.11;42.83;101879.28;2200637;39;113629;-54
2021/06/14 07:36:47;;;;;;;;;;;;;;;24.16;42.80;101882.03;2197479;39;113712;-62
2021/06/14 07:38:19;;;;;;;;;;;;;;;24.18;42.89;101876.06;2202197;39;113998;-53
2021/06/14 07:39:51;;;;;;;;;;;;;;;24.09;42.83;101870.25;2195476;39;114315;-53
2021/06/14 07:41:23;;;;;;;;;;;;;;;24.11;42.82;101872.78;2198869;39;113861;-54
2021/06/14 07:42:55;;;;;;;;;;;;;;;24.15;42.49;101874.69;2199562;39;114232;-54
2021/06/14 07:44:27;;;;;;;;;;;;;;;24.11;42.87;101861.50;2195294;39;113977;-54
2021/06/14 07:45:58;;;;;;;;;;;;;;;24.11;42.87;101870.81;2200862;39;113837;-53
2021/06/14 07:47:32;;;;;;;;;;;;;;;24.13;42.79;101865.66;2202700;39;113895;-53
2021/06/14 07:49:10;;;;;;;;;;;;;;;24.13;42.84;101868.50;2200095;39;113915;-54
2021/06/14 07:50:46;;;;;;;;;;;;;;;24.12;42.82;101861.16;2191096;39;113858;-54
2021/06/14 07:52:19;;;;;;;;;;;;;;;24.11;42.94;101864.31;2197136;39;113938;-55